createdAt,value
2018-03-03T00:00:08.525Z,160.20
2018-03-03T00:02:36.074Z,166.73
2018-03-03T00:05:03.811Z,157.73
2018-03-03T00:07:31.354Z,179.35
2018-03-03T00:09:58.937Z,169.60
2018-03-03T00:12:26.474Z,178.45
2018-03-03T00:14:54.062Z,175.70
2018-03-03T00:17:21.612Z,155.02
2018-03-03T00:19:49.196Z,172.07
2018-03-03T00:22:41.535Z,161.40
2018-03-03T00:25:09.111Z,168.68
2018-03-03T00:27:36.660Z,183.57
2018-03-03T00:30:04.260Z,179.25
2018-03-03T00:32:32.607Z,172.23
2018-03-03T00:35:00.157Z,182.88
2018-03-03T00:37:27.745Z,170.87
2018-03-03T00:39:56.064Z,162.57
2018-03-03T00:42:23.610Z,175.82
2018-03-03T00:44:51.189Z,187.20
2018-03-03T00:47:18.766Z,191.57
2018-03-03T00:49:46.365Z,176.23
2018-03-03T00:52:14.739Z,173.75
2018-03-03T00:54:43.095Z,175.87
2018-03-03T00:57:11.411Z,175.70
2018-03-03T00:59:39.022Z,165.70
2018-03-03T01:02:06.569Z,174.30
2018-03-03T01:04:34.116Z,158.05
2018-03-03T01:07:01.706Z,159.95
2018-03-03T01:09:29.257Z,162.95
2018-03-03T01:11:56.840Z,161.05
2018-03-03T01:14:24.378Z,162.85
2018-03-03T01:16:51.963Z,149.20
2018-03-03T01:19:19.509Z,160.95
2018-03-03T01:21:47.112Z,145.07
2018-03-03T01:24:14.659Z,153.48
2018-03-03T01:26:42.977Z,156.00
2018-03-03T01:29:10.560Z,147.00
2018-03-03T01:31:38.133Z,145.10
2018-03-03T01:34:06.082Z,145.30
2018-03-03T01:36:33.645Z,138.20
2018-03-03T01:39:01.213Z,137.68
2018-03-03T01:41:28.803Z,140.40
2018-03-03T01:43:57.112Z,135.75
2018-03-03T01:46:24.712Z,130.37
2018-03-03T01:48:52.261Z,143.65
2018-03-03T01:51:31.908Z,139.07
2018-03-03T01:53:59.492Z,142.73
2018-03-03T01:56:27.810Z,136.60
2018-03-03T01:58:55.399Z,128.40
2018-03-03T02:01:22.950Z,137.40
2018-03-03T02:03:50.527Z,129.87
2018-03-03T02:06:18.078Z,131.55
2018-03-03T02:08:45.668Z,129.85
2018-03-03T02:11:13.992Z,134.65
2018-03-03T02:13:41.585Z,126.45
2018-03-03T02:16:09.172Z,130.10
2018-03-03T02:18:37.484Z,135.40
2018-03-03T02:21:05.068Z,138.18
2018-03-03T02:23:32.620Z,133.27
2018-03-03T02:26:00.231Z,123.30
2018-03-03T02:28:28.546Z,83.70
2018-03-03T02:30:56.210Z,108.85
2018-03-03T02:33:23.797Z,103.65
2018-03-03T02:35:51.352Z,108.60
2018-03-03T02:38:18.934Z,109.32
2018-03-03T02:40:46.475Z,99.72
2018-03-03T02:43:14.062Z,114.97
2018-03-03T02:45:42.421Z,127.65
2018-03-03T02:48:09.976Z,122.43
2018-03-03T02:50:37.528Z,111.28
2018-03-03T02:53:05.126Z,118.78
2018-03-03T02:55:33.437Z,78.93
2018-03-03T02:58:01.020Z,80.43
2018-03-03T03:00:28.565Z,99.85
2018-03-03T03:02:56.228Z,91.87
2018-03-03T03:05:23.784Z,97.28
2018-03-03T03:07:51.341Z,105.05
2018-03-03T03:10:18.929Z,96.47
2018-03-03T03:12:46.470Z,118.93
2018-03-03T03:15:14.011Z,103.78
2018-03-03T03:17:41.593Z,112.20
2018-03-03T03:20:09.147Z,104.97
2018-03-03T03:22:36.739Z,108.18
2018-03-03T03:25:04.318Z,116.55
2018-03-03T03:27:32.668Z,118.15
2018-03-03T03:30:00.221Z,108.25
2018-03-03T03:32:27.827Z,117.65
2018-03-03T03:34:56.143Z,122.00
2018-03-03T03:37:23.726Z,106.95
2018-03-03T03:39:51.309Z,114.30
2018-03-03T03:42:19.628Z,122.05
2018-03-03T03:44:47.251Z,116.60
2018-03-03T03:47:15.560Z,115.50
2018-03-03T03:49:43.204Z,115.05
2018-03-03T03:52:11.552Z,112.30
2018-03-03T03:54:39.144Z,115.07
2018-03-03T03:57:07.456Z,114.37
2018-03-03T03:59:35.045Z,116.40
2018-03-03T04:02:02.632Z,116.32
2018-03-03T04:04:30.985Z,110.55
2018-03-03T04:06:58.567Z,117.53
2018-03-03T04:09:26.873Z,116.50
2018-03-03T04:11:54.461Z,114.47
2018-03-03T04:14:22.011Z,115.80
2018-03-03T04:16:49.569Z,110.78
2018-03-03T04:19:17.170Z,122.03
2018-03-03T04:21:44.718Z,122.43
2018-03-03T04:24:13.027Z,99.50
2018-03-03T04:26:41.376Z,99.20
2018-03-03T04:29:08.997Z,116.45
2018-03-03T04:31:36.553Z,101.75
2018-03-03T04:34:04.100Z,119.07
2018-03-03T04:36:31.685Z,114.85
2018-03-03T04:38:59.226Z,93.68
2018-03-03T04:41:26.875Z,103.15
2018-03-03T04:43:54.425Z,108.00
2018-03-03T04:46:22.836Z,110.72
2018-03-03T04:48:50.394Z,113.72
2018-03-03T04:51:17.942Z,108.90
2018-03-03T04:53:45.534Z,107.40
2018-03-03T04:56:13.087Z,110.28
2018-03-03T04:58:43.594Z,102.90
2018-03-03T05:01:16.825Z,74.90
2018-03-03T05:03:46.243Z,85.60
2018-03-03T05:06:28.661Z,87.60
2018-03-03T05:08:57.291Z,84.32
2018-03-03T05:11:24.848Z,81.65
2018-03-03T05:14:08.683Z,121.50
2018-03-03T05:16:36.228Z,71.95
2018-03-03T05:19:09.549Z,91.68
2018-03-03T05:21:37.708Z,91.35
2018-03-03T05:24:24.195Z,89.57
2018-03-03T05:27:12.466Z,89.32
2018-03-03T05:29:45.716Z,92.28
2018-03-03T05:32:18.931Z,93.30
2018-03-03T05:34:52.167Z,97.05
2018-03-03T05:37:25.300Z,91.15
2018-03-03T05:39:59.276Z,103.12
2018-03-03T05:42:31.389Z,102.15
2018-03-03T05:45:04.728Z,97.50
2018-03-03T05:47:49.136Z,72.95
2018-03-03T05:50:32.410Z,82.65
2018-03-03T05:53:16.668Z,86.55
2018-03-03T05:55:46.863Z,86.63
2018-03-03T05:58:33.102Z,92.05
2018-03-03T06:01:06.235Z,97.82
2018-03-03T06:03:54.633Z,98.97
2018-03-03T06:06:27.920Z,88.12
2018-03-03T06:08:58.401Z,87.60
2018-03-03T06:11:25.988Z,97.55
2018-03-03T06:13:53.543Z,97.20
2018-03-03T06:16:21.304Z,96.47
2018-03-03T06:18:48.852Z,91.57
2018-03-03T06:21:16.609Z,95.45
2018-03-03T06:23:44.162Z,101.10
2018-03-03T06:26:11.762Z,94.13
2018-03-03T06:28:39.309Z,97.12
2018-03-03T06:31:06.901Z,96.93
2018-03-03T06:33:35.242Z,98.45
2018-03-03T06:36:03.026Z,103.50
2018-03-03T06:38:30.569Z,96.00
2018-03-03T06:40:58.177Z,88.62
2018-03-03T06:43:26.510Z,109.28
2018-03-03T06:45:54.110Z,111.70
2018-03-03T06:48:21.726Z,107.47
2018-03-03T06:50:49.324Z,108.22
2018-03-03T06:53:16.880Z,105.53
2018-03-03T06:55:44.640Z,117.45
2018-03-03T06:58:12.187Z,136.10
2018-03-03T07:00:39.823Z,116.80
2018-03-03T07:03:07.392Z,126.68
2018-03-03T07:05:35.756Z,128.45
2018-03-03T07:08:04.036Z,134.82
2018-03-03T07:10:31.622Z,135.85
2018-03-03T07:12:59.258Z,136.88
2018-03-03T07:15:26.843Z,119.45
2018-03-03T07:17:54.400Z,138.10
2018-03-03T07:20:21.997Z,127.78
2018-03-03T07:22:49.962Z,134.95
2018-03-03T07:25:17.524Z,122.78
2018-03-03T07:27:45.133Z,129.10
2018-03-03T07:30:12.688Z,135.05
2018-03-03T07:32:41.229Z,131.55
2018-03-03T07:35:09.564Z,147.87
2018-03-03T07:37:37.201Z,144.95
2018-03-03T07:40:05.436Z,140.80
2018-03-03T07:42:32.995Z,139.88
2018-03-03T07:45:00.662Z,143.50
2018-03-03T07:47:28.478Z,126.87
2018-03-03T07:49:56.160Z,137.98
2018-03-03T07:52:23.777Z,137.98
2018-03-03T07:54:51.335Z,133.90
2018-03-03T07:57:19.046Z,123.53
2018-03-03T07:59:46.606Z,137.73
2018-03-03T08:02:14.203Z,138.57
2018-03-03T08:04:42.558Z,141.90
2018-03-03T08:07:10.254Z,136.77
2018-03-03T08:09:38.709Z,149.23
2018-03-03T08:12:06.303Z,148.20
2018-03-03T08:14:33.982Z,147.57
2018-03-03T08:17:01.574Z,141.60
2018-03-03T08:19:29.136Z,148.95
2018-03-03T08:21:56.842Z,134.48
2018-03-03T08:24:24.461Z,141.85
2018-03-03T08:26:52.208Z,156.87
2018-03-03T08:29:19.754Z,134.45
2018-03-03T08:31:47.345Z,157.27
2018-03-03T08:34:14.904Z,167.55
2018-03-03T08:36:42.489Z,145.60
2018-03-03T08:39:10.980Z,140.93
2018-03-03T08:41:39.534Z,144.23
2018-03-03T08:44:07.102Z,140.00
2018-03-03T08:46:36.154Z,143.62
2018-03-03T08:49:03.763Z,153.70
2018-03-03T08:51:31.359Z,169.30
2018-03-03T08:53:58.984Z,171.05
2018-03-03T08:56:26.627Z,164.30
2018-03-03T08:58:54.174Z,156.45
2018-03-03T09:01:21.747Z,156.20
2018-03-03T09:03:49.362Z,150.80
2018-03-03T09:06:16.919Z,148.10
2018-03-03T09:08:44.528Z,145.48
2018-03-03T09:11:12.180Z,153.15
2018-03-03T09:13:39.736Z,138.77
2018-03-03T09:16:07.438Z,146.75
2018-03-03T09:18:36.066Z,162.07
2018-03-03T09:21:03.718Z,158.77
2018-03-03T09:23:31.312Z,153.93
2018-03-03T09:25:58.865Z,161.73
2018-03-03T09:28:26.468Z,149.65
2018-03-03T09:30:54.795Z,144.95
2018-03-03T09:33:22.466Z,142.95
2018-03-03T09:35:50.056Z,149.82
2018-03-03T09:38:18.374Z,156.00
2018-03-03T09:40:45.974Z,161.05
2018-03-03T09:43:14.322Z,157.30
2018-03-03T09:45:41.986Z,163.10
2018-03-03T09:48:09.533Z,155.25
2018-03-03T09:50:37.090Z,161.00
2018-03-03T09:53:04.689Z,156.15
2018-03-03T09:55:32.304Z,153.43
2018-03-03T09:57:59.976Z,151.80
2018-03-03T10:00:27.582Z,166.02
2018-03-03T10:02:55.136Z,179.32
2018-03-03T10:05:22.725Z,159.15
2018-03-03T10:07:51.036Z,167.70
2018-03-03T10:10:18.619Z,150.02
2018-03-03T10:12:46.252Z,154.40
2018-03-03T10:15:13.884Z,134.75
2018-03-03T10:17:42.197Z,132.73
2018-03-03T10:20:09.791Z,147.73
2018-03-03T10:22:37.344Z,150.55
2018-03-03T10:25:04.937Z,134.32
2018-03-03T10:27:33.254Z,174.48
2018-03-03T10:30:01.035Z,129.45
2018-03-03T10:32:28.575Z,131.30
2018-03-03T10:34:56.211Z,155.07
2018-03-03T10:37:24.539Z,168.43
2018-03-03T10:39:52.130Z,145.30
2018-03-03T10:42:19.681Z,151.18
2018-03-03T10:44:47.445Z,150.85
2018-03-03T10:47:14.995Z,112.00
2018-03-03T10:49:42.778Z,128.80
2018-03-03T10:52:10.301Z,151.80
2018-03-03T10:54:38.057Z,137.45
2018-03-03T10:57:05.616Z,177.02
2018-03-03T10:59:33.340Z,131.57
2018-03-03T11:02:01.676Z,150.75
2018-03-03T11:04:29.272Z,147.25
2018-03-03T11:06:57.595Z,143.52
2018-03-03T11:09:25.187Z,151.43
2018-03-03T11:11:52.760Z,153.12
2018-03-03T11:14:20.465Z,143.50
2018-03-03T11:16:48.061Z,132.57
2018-03-03T11:19:15.607Z,129.73
2018-03-03T11:21:43.313Z,156.75
2018-03-03T11:24:11.715Z,155.48
2018-03-03T11:26:39.321Z,163.77
2018-03-03T11:29:06.913Z,153.27
2018-03-03T11:31:35.298Z,159.27
2018-03-03T11:34:03.644Z,153.48
2018-03-03T11:36:31.219Z,160.93
2018-03-03T11:38:58.821Z,158.00
2018-03-03T11:41:26.499Z,149.48
2018-03-03T11:43:54.107Z,151.23
2018-03-03T11:46:22.572Z,149.50
2018-03-03T11:48:50.886Z,161.12
2018-03-03T11:51:19.242Z,145.45
2018-03-03T11:53:46.907Z,140.48
2018-03-03T11:56:14.432Z,156.18
2018-03-03T11:58:42.144Z,143.00
2018-03-03T12:01:10.498Z,153.70
2018-03-03T12:03:38.939Z,156.43
2018-03-03T12:06:06.538Z,142.25
2018-03-03T12:08:34.092Z,121.43
2018-03-03T12:11:01.684Z,132.65
2018-03-03T12:13:29.999Z,125.32
2018-03-03T12:15:57.596Z,132.95
2018-03-03T12:18:25.333Z,113.97
2018-03-03T12:20:52.949Z,136.70
2018-03-03T12:23:21.261Z,125.97
2018-03-03T12:25:49.820Z,126.50
2018-03-03T12:28:17.363Z,125.38
2018-03-03T12:30:45.716Z,126.22
2018-03-03T12:33:13.312Z,128.10
2018-03-03T12:35:40.924Z,118.55
2018-03-03T12:38:08.535Z,112.18
2018-03-03T12:40:36.128Z,132.98
2018-03-03T12:43:03.665Z,117.97
2018-03-03T12:45:31.258Z,107.65
2018-03-03T12:47:59.004Z,116.22
2018-03-03T12:50:26.607Z,121.47
2018-03-03T12:52:54.169Z,120.87
2018-03-03T12:55:21.786Z,117.18
2018-03-03T12:57:49.336Z,113.82
2018-03-03T13:00:17.008Z,108.75
2018-03-03T13:02:45.580Z,107.57
2018-03-03T13:05:13.176Z,118.25
2018-03-03T13:07:40.720Z,119.85
2018-03-03T13:10:08.336Z,122.62
2018-03-03T13:12:36.735Z,124.78
2018-03-03T13:15:04.367Z,113.80
2018-03-03T13:17:33.271Z,109.30
2018-03-03T13:20:01.641Z,117.45
2018-03-03T13:22:30.051Z,112.37
2018-03-03T13:24:57.672Z,125.18
2018-03-03T13:27:25.990Z,117.05
2018-03-03T13:29:53.680Z,113.03
2018-03-03T13:32:21.321Z,117.75
2018-03-03T13:34:48.907Z,123.68
2018-03-03T13:37:16.566Z,116.70
2018-03-03T13:39:44.184Z,122.13
2018-03-03T13:42:11.730Z,114.70
2018-03-03T13:44:40.092Z,107.65
2018-03-03T13:47:08.404Z,122.93
2018-03-03T13:49:36.060Z,117.80
2018-03-03T13:52:03.744Z,106.03
2018-03-03T13:54:31.333Z,113.45
2018-03-03T13:56:58.945Z,103.90
2018-03-03T13:59:26.725Z,107.60
2018-03-03T14:01:54.323Z,103.35
2018-03-03T14:04:21.925Z,105.18
2018-03-03T14:06:49.601Z,103.25
2018-03-03T14:09:17.213Z,107.87
2018-03-03T14:11:45.571Z,97.60
2018-03-03T14:14:13.185Z,107.12
2018-03-03T14:16:41.502Z,112.37
2018-03-03T14:19:09.042Z,96.03
2018-03-03T14:21:36.633Z,92.20
2018-03-03T14:24:04.217Z,95.38
2018-03-03T14:26:31.759Z,106.35
2018-03-03T14:28:59.352Z,97.88
2018-03-03T14:31:27.673Z,79.22
2018-03-03T14:33:55.267Z,88.72
2018-03-03T14:36:22.809Z,91.70
2018-03-03T14:38:50.514Z,90.40
2018-03-03T14:41:18.832Z,84.43
2018-03-03T14:43:46.420Z,88.03
2018-03-03T14:46:14.048Z,96.85
2018-03-03T14:48:41.679Z,86.37
2018-03-03T14:51:10.040Z,92.85
2018-03-03T14:53:38.348Z,95.57
2018-03-03T14:56:06.001Z,83.47
2018-03-03T14:58:33.556Z,88.20
2018-03-03T15:01:01.146Z,87.70
2018-03-03T15:03:28.780Z,76.10
2018-03-03T15:05:57.133Z,93.28
2018-03-03T15:08:24.691Z,89.78
2018-03-03T15:10:52.392Z,85.60
2018-03-03T15:13:19.954Z,88.50
2018-03-03T15:15:47.554Z,84.50
2018-03-03T15:18:15.226Z,93.37
2018-03-03T15:20:42.811Z,92.28
2018-03-03T15:23:11.121Z,90.80
2018-03-03T15:25:38.990Z,103.62
2018-03-03T15:28:06.755Z,98.45
2018-03-03T15:30:34.338Z,89.25
2018-03-03T15:33:01.978Z,88.75
2018-03-03T15:35:29.551Z,85.38
2018-03-03T15:37:57.098Z,81.37
2018-03-03T15:40:24.683Z,79.55
2018-03-03T15:42:52.226Z,88.05
2018-03-03T15:45:19.812Z,86.20
2018-03-03T15:47:47.596Z,93.12
2018-03-03T15:50:15.287Z,85.32
2018-03-03T15:52:42.834Z,85.53
2018-03-03T15:55:11.187Z,98.18
2018-03-03T15:57:38.729Z,89.10
2018-03-03T16:00:06.398Z,85.00
2018-03-03T16:02:34.028Z,96.00
2018-03-03T16:05:01.681Z,92.28
2018-03-03T16:07:29.228Z,90.40
2018-03-03T16:09:56.812Z,101.50
2018-03-03T16:12:24.406Z,88.43
2018-03-03T16:14:51.989Z,90.68
2018-03-03T16:17:20.296Z,92.75
2018-03-03T16:19:47.906Z,101.60
2018-03-03T16:22:15.444Z,94.85
2018-03-03T16:24:44.111Z,94.82
2018-03-03T16:27:11.651Z,97.25
2018-03-03T16:29:39.196Z,96.28
2018-03-03T16:32:07.622Z,103.45
2018-03-03T16:34:35.387Z,104.20
2018-03-03T16:37:02.969Z,89.65
2018-03-03T16:39:30.542Z,101.75
2018-03-03T16:41:58.864Z,90.07
2018-03-03T16:44:26.444Z,95.20
2018-03-03T16:46:53.985Z,96.95
2018-03-03T16:49:21.576Z,95.97
2018-03-03T16:51:49.112Z,92.12
2018-03-03T16:54:16.659Z,94.05
2018-03-03T16:56:45.099Z,102.85
2018-03-03T16:59:13.407Z,101.72
2018-03-03T17:01:41.103Z,86.95
2018-03-03T17:04:08.631Z,94.45
2018-03-03T17:06:36.175Z,99.28
2018-03-03T17:09:04.524Z,104.20
2018-03-03T17:11:32.060Z,108.50
2018-03-03T17:13:59.652Z,113.20
2018-03-03T17:16:27.969Z,103.90
2018-03-03T17:18:55.554Z,96.75
2018-03-03T17:21:23.089Z,95.82
2018-03-03T17:23:50.668Z,108.50
2018-03-03T17:26:18.209Z,96.32
2018-03-03T17:28:45.801Z,94.00
2018-03-03T17:31:13.357Z,92.15
2018-03-03T17:33:40.901Z,85.45
2018-03-03T17:36:08.484Z,94.18
2018-03-03T17:38:36.022Z,99.30
2018-03-03T17:41:03.605Z,89.78
2018-03-03T17:43:31.149Z,95.05
2018-03-03T17:45:58.741Z,103.87
2018-03-03T17:48:26.283Z,101.40
2018-03-03T17:50:53.830Z,102.03
2018-03-03T17:53:21.404Z,89.40
2018-03-03T17:55:48.989Z,91.45
2018-03-03T17:58:17.307Z,95.68
2018-03-03T18:00:44.872Z,88.78
2018-03-03T18:03:12.460Z,97.72
2018-03-03T18:05:39.998Z,89.37
2018-03-03T18:08:07.615Z,96.35
2018-03-03T18:10:35.919Z,82.30
2018-03-03T18:13:03.509Z,102.18
2018-03-03T18:15:31.053Z,97.03
2018-03-03T18:17:58.604Z,104.30
2018-03-03T18:20:26.183Z,100.22
2018-03-03T18:22:53.726Z,91.68
2018-03-03T18:25:21.304Z,97.82
2018-03-03T18:27:48.845Z,89.50
2018-03-03T18:30:16.415Z,94.80
2018-03-03T18:32:43.999Z,98.97
2018-03-03T18:35:11.540Z,89.47
2018-03-03T18:37:39.137Z,92.68
2018-03-03T18:40:06.729Z,99.37
2018-03-03T18:42:34.268Z,98.47
2018-03-03T18:45:02.589Z,82.15
2018-03-03T18:47:30.312Z,90.93
2018-03-03T18:49:58.656Z,87.20
2018-03-03T18:52:26.229Z,89.68
2018-03-03T18:54:53.770Z,91.40
2018-03-03T18:57:21.357Z,100.65
2018-03-03T18:59:49.672Z,94.68
2018-03-03T19:02:17.248Z,97.57
2018-03-03T19:04:44.826Z,97.22
2018-03-03T19:07:12.368Z,109.03
2018-03-03T19:09:39.954Z,98.28
2018-03-03T19:12:07.499Z,100.47
2018-03-03T19:14:35.104Z,90.00
2018-03-03T19:17:03.417Z,100.28
2018-03-03T19:19:30.968Z,108.37
2018-03-03T19:21:58.529Z,107.80
2018-03-03T19:24:26.075Z,102.12
2018-03-03T19:26:53.727Z,106.75
2018-03-03T19:29:22.039Z,106.78
2018-03-03T19:31:49.627Z,106.90
2018-03-03T19:34:17.179Z,108.57
2018-03-03T19:36:44.777Z,102.45
2018-03-03T19:39:13.087Z,99.47
2018-03-03T19:41:40.634Z,106.03
2018-03-03T19:44:08.207Z,109.60
2018-03-03T19:46:35.749Z,101.03
2018-03-03T19:49:03.331Z,99.90
2018-03-03T19:51:30.890Z,103.18
2018-03-03T19:53:58.471Z,106.72
2018-03-03T19:56:26.061Z,110.78
2018-03-03T19:58:53.615Z,105.43
2018-03-03T20:01:21.199Z,110.15
2018-03-03T20:03:49.507Z,117.45
2018-03-03T20:06:17.091Z,101.03
2018-03-03T20:08:44.632Z,109.15
2018-03-03T20:11:12.218Z,113.57
2018-03-03T20:13:39.775Z,119.35
2018-03-03T20:16:07.371Z,116.72
2018-03-03T20:18:35.679Z,114.20
2018-03-03T20:21:03.276Z,108.57
2018-03-03T20:23:30.828Z,112.37
2018-03-03T20:25:58.470Z,111.43
2018-03-03T20:28:26.031Z,104.63
2018-03-03T20:30:53.585Z,109.47
2018-03-03T20:33:21.175Z,113.72
2018-03-03T20:35:48.721Z,104.57
2018-03-03T20:38:16.307Z,105.85
2018-03-03T20:40:43.892Z,111.25
2018-03-03T20:43:12.268Z,105.40
2018-03-03T20:45:40.567Z,98.45
2018-03-03T20:48:08.144Z,107.40
2018-03-03T20:50:35.738Z,106.15
2018-03-03T20:53:03.278Z,99.93
2018-03-03T20:55:30.837Z,105.30
2018-03-03T20:57:58.416Z,103.07
2018-03-03T21:00:26.778Z,110.37
2018-03-03T21:02:54.396Z,113.47
2018-03-03T21:05:22.690Z,118.22
2018-03-03T21:07:50.427Z,117.47
2018-03-03T21:10:18.742Z,113.82
2018-03-03T21:12:46.333Z,104.00
2018-03-03T21:15:13.877Z,112.15
2018-03-03T21:17:41.431Z,107.40
2018-03-03T21:20:09.003Z,112.37
2018-03-03T21:22:36.739Z,121.97
2018-03-03T21:25:04.322Z,102.53
2018-03-03T21:27:31.871Z,111.43
2018-03-03T21:29:59.423Z,120.78
2018-03-03T21:32:27.002Z,130.35
2018-03-03T21:34:54.588Z,129.95
2018-03-03T21:37:22.141Z,136.37
2018-03-03T21:39:49.736Z,124.47
2018-03-03T21:42:17.327Z,126.35
2018-03-03T21:44:44.875Z,118.35
2018-03-03T21:47:12.456Z,116.03
2018-03-03T21:49:40.099Z,114.22
2018-03-03T21:52:07.679Z,124.05
2018-03-03T21:54:35.228Z,126.12
2018-03-03T21:57:02.811Z,119.03
2018-03-03T21:59:30.358Z,115.90
2018-03-03T22:01:57.946Z,112.50
2018-03-03T22:04:25.524Z,121.20
2018-03-03T22:06:53.874Z,127.93
2018-03-03T22:09:21.469Z,114.45
2018-03-03T22:11:49.786Z,124.00
2018-03-03T22:14:17.376Z,116.72
2018-03-03T22:16:44.916Z,126.12
2018-03-03T22:19:12.502Z,122.43
2018-03-03T22:21:40.856Z,119.18
2018-03-03T22:24:08.402Z,129.90
2018-03-03T22:26:35.981Z,131.95
2018-03-03T22:29:03.561Z,108.82
2018-03-03T22:31:31.135Z,127.15
2018-03-03T22:33:59.476Z,126.15
2018-03-03T22:36:27.115Z,146.37
2018-03-03T22:38:54.693Z,126.85
2018-03-03T22:41:22.236Z,145.52
2018-03-03T22:43:49.812Z,144.37
2018-03-03T22:46:17.365Z,147.07
2018-03-03T22:48:45.014Z,137.88
2018-03-03T22:51:12.555Z,128.60
2018-03-03T22:53:40.105Z,132.45
2018-03-03T22:56:07.688Z,145.73
2018-03-03T22:58:35.264Z,141.25
2018-03-03T23:01:02.846Z,139.43
2018-03-03T23:03:31.204Z,140.75
2018-03-03T23:05:58.787Z,139.95
2018-03-03T23:08:26.331Z,147.07
2018-03-03T23:10:54.939Z,155.57
2018-03-03T23:13:22.494Z,159.27
2018-03-03T23:15:50.082Z,155.30
2018-03-03T23:18:18.395Z,159.18
2018-03-03T23:20:45.979Z,151.10
2018-03-03T23:23:13.614Z,164.23
2018-03-03T23:25:41.203Z,166.02
2018-03-03T23:28:08.751Z,156.87
2018-03-03T23:30:36.332Z,157.10
2018-03-03T23:33:03.909Z,169.20
2018-03-03T23:35:32.266Z,174.15
2018-03-03T23:37:59.810Z,161.85
2018-03-03T23:40:27.354Z,163.85
2018-03-03T23:42:54.942Z,154.98
2018-03-03T23:45:22.488Z,169.95
2018-03-03T23:47:50.904Z,168.00
2018-03-03T23:50:19.245Z,172.10
2018-03-03T23:52:46.835Z,180.45
2018-03-03T23:55:15.147Z,168.62
2018-03-03T23:57:42.735Z,165.62
